Time;durP1;ratioP1;P1;durP2;ratioP2;P2;SDS_P1;SDS_P2;PMS_P1;PMS_P2;Temp;Humidity;BMP_temperature;BMP_pressure;BME280_temperature;BME280_humidity;BME280_pressure;Samples;Min_cycle;Max_cycle;Signal;HPM_P1;HPM_P2
2022/11/01 00:01:30;;;;;;;23.43;19.33;;;14.00;99.90;;;;;;5084497;28;20484;-56
2022/11/01 00:03:56;;;;;;;23.35;20.88;;;14.00;99.90;;;;;;5086927;28;20389;-56
2022/11/01 00:06:22;;;;;;;24.20;21.60;;;14.00;99.90;;;;;;5091215;28;20791;-53
2022/11/01 00:08:47;;;;;;;25.48;22.70;;;14.00;99.90;;;;;;5091085;28;20394;-55
2022/11/01 00:11:15;;;;;;;27.40;23.40;;;13.90;99.90;;;;;;5090134;28;20719;-56
2022/11/01 00:13:43;;;;;;;22.67;20.10;;;13.90;99.90;;;;;;5091114;28;20486;-54
2022/11/01 00:16:08;;;;;;;24.45;21.77;;;13.90;99.90;;;;;;5090733;28;20613;-52
2022/11/01 00:18:37;;;;;;;27.08;24.23;;;13.90;99.90;;;;;;5090514;28;20459;-50
2022/11/01 00:21:05;;;;;;;30.70;27.57;;;13.80;99.90;;;;;;5090327;28;20684;-56
2022/11/01 00:23:40;;;;;;;24.83;22.38;;;13.90;99.90;;;;;;5089328;28;20390;-54
2022/11/01 00:26:13;;;;;;;28.63;22.10;;;13.90;99.90;;;;;;5088525;28;20670;-57
2022/11/01 00:28:39;;;;;;;25.40;22.80;;;13.90;99.90;;;;;;5089131;28;20393;-51
2022/11/01 00:31:05;;;;;;;25.58;22.45;;;13.90;99.90;;;;;;5089313;28;20386;-56
2022/11/01 00:33:30;;;;;;;25.02;22.35;;;13.80;99.90;;;;;;5089879;28;20820;-53
2022/11/01 00:36:00;;;;;;;30.33;26.63;;;13.90;99.90;;;;;;5090348;28;20389;-55
2022/11/01 00:38:25;;;;;;;29.42;26.40;;;13.80;99.90;;;;;;5090832;28;20402;-57
2022/11/01 00:40:51;;;;;;;32.47;26.83;;;13.80;99.90;;;;;;5089322;28;20477;-54
2022/11/01 00:43:16;;;;;;;30.17;25.63;;;13.80;99.90;;;;;;5089148;28;20624;-55
2022/11/01 00:45:43;;;;;;;29.43;23.33;;;13.80;99.90;;;;;;5087822;28;20487;-55
2022/11/01 00:48:15;;;;;;;27.42;24.45;;;13.80;99.90;;;;;;5088446;28;20405;-55
2022/11/01 00:50:44;;;;;;;28.98;25.90;;;13.80;99.90;;;;;;5087766;28;20563;-56
2022/11/01 00:53:12;;;;;;;28.50;25.38;;;13.80;99.90;;;;;;5086785;28;20801;-55
2022/11/01 00:55:38;;;;;;;25.65;23.05;;;13.80;99.90;;;;;;5087201;28;20398;-56
2022/11/01 00:58:19;;;;;;;30.77;25.00;;;13.80;99.90;;;;;;5089385;28;20381;-53
2022/11/01 01:00:48;;;;;;;29.10;25.02;;;13.80;99.90;;;;;;5090143;28;20754;-55
2022/11/01 01:03:23;;;;;;;27.67;23.80;;;13.80;99.90;;;;;;5090338;28;20397;-57
2022/11/01 01:05:50;;;;;;;26.33;23.02;;;13.80;99.90;;;;;;5090506;28;20378;-57
2022/11/01 01:08:16;;;;;;;26.73;22.23;;;13.90;99.90;;;;;;5090303;28;20409;-56
2022/11/01 01:10:44;;;;;;;26.77;23.60;;;13.90;99.90;;;;;;5089655;28;20387;-53
2022/11/01 01:13:16;;;;;;;29.75;24.75;;;13.90;99.90;;;;;;5090748;28;20402;-53
2022/11/01 01:15:47;;;;;;;27.23;23.83;;;13.90;99.90;;;;;;5089696;28;20484;-54
2022/11/01 01:18:22;;;;;;;28.95;25.92;;;13.90;99.90;;;;;;5090299;28;20489;-57
2022/11/01 01:20:58;;;;;;;30.83;26.15;;;13.90;99.90;;;;;;5090941;28;20390;-56
2022/11/01 01:23:23;;;;;;;31.63;27.57;;;13.90;99.90;;;;;;5091033;28;20647;-53
2022/11/01 01:25:52;;;;;;;29.77;26.50;;;13.80;99.90;;;;;;5090639;28;20896;-52
2022/11/01 01:28:17;;;;;;;28.60;25.52;;;13.80;99.90;;;;;;5090060;28;20386;-53
2022/11/01 01:30:43;;;;;;;31.27;26.00;;;13.80;99.90;;;;;;5092100;28;20687;-57
2022/11/01 01:33:09;;;;;;;30.42;26.33;;;13.80;99.90;;;;;;5089686;28;20763;-56
2022/11/01 01:35:34;;;;;;;28.92;24.85;;;13.80;99.90;;;;;;5089603;28;20389;-51
2022/11/01 01:38:00;;;;;;;30.50;26.48;;;13.80;99.90;;;;;;5090622;28;20378;-54
2022/11/01 01:40:25;;;;;;;27.50;24.57;;;13.90;99.90;;;;;;5089215;28;20389;-56
2022/11/01 01:43:39;;;;;;;28.30;25.10;;;14.00;99.90;;;;;;5089555;28;20388;-57
2022/11/01 01:46:04;;;;;;;29.00;25.87;;;14.00;99.90;;;;;;5089443;28;20458;-52
2022/11/01 01:48:30;;;;;;;28.00;25.00;;;14.00;99.90;;;;;;5090506;28;20386;-56
2022/11/01 01:51:04;;;;;;;31.47;28.03;;;14.00;99.90;;;;;;5090277;28;20665;-56
2022/11/01 01:53:32;;;;;;;32.72;28.40;;;14.00;99.90;;;;;;5088180;28;20599;-56
2022/11/01 01:56:03;;;;;;;27.15;24.08;;;13.90;99.90;;;;;;5089002;28;20476;-55
2022/11/01 01:58:39;;;;;;;30.70;27.20;;;14.00;99.90;;;;;;5088702;28;20461;-56
2022/11/01 02:01:05;;;;;;;32.17;27.10;;;14.00;99.90;;;;;;5088413;28;20390;-56
2022/11/01 02:03:32;;;;;;;34.57;29.83;;;14.00;99.90;;;;;;5087040;28;20413;-55
2022/11/01 02:06:22;;;;;;;28.48;25.05;;;14.00;99.90;;;;;;5087799;28;20420;-57
2022/11/01 02:08:59;;;;;;;34.35;28.75;;;14.00;99.90;;;;;;5090006;28;20386;-55
2022/11/01 02:11:28;;;;;;;34.67;27.27;;;14.00;99.90;;;;;;5089092;28;20653;-55
2022/11/01 02:13:54;;;;;;;30.60;26.65;;;14.00;99.90;;;;;;5089877;28;20394;-57
2022/11/01 02:16:40;;;;;;;33.10;28.23;;;14.10;99.90;;;;;;5090201;28;20393;-56
2022/11/01 02:20:03;;;;;;;34.05;27.75;;;14.10;99.90;;;;;;5091309;28;20401;-55
2022/11/01 02:23:12;;;;;;;34.95;29.55;;;14.10;99.90;;;;;;5093759;28;20385;-58
2022/11/01 02:25:54;;;;;;;31.63;27.57;;;14.10;99.90;;;;;;5092858;28;20436;-55
2022/11/01 02:28:57;;;;;;;34.33;29.58;;;14.10;99.90;;;;;;5093914;28;20689;-53
2022/11/01 02:31:39;;;;;;;38.45;32.72;;;14.10;99.90;;;;;;5094484;28;20386;-54
2022/11/01 02:34:13;;;;;;;35.30;29.45;;;14.00;99.90;;;;;;5093894;28;20410;-52
2022/11/01 02:36:47;;;;;;;37.60;30.30;;;14.10;99.90;;;;;;5094443;28;20378;-52
2022/11/01 02:39:20;;;;;;;37.03;29.90;;;14.10;99.90;;;;;;5093625;28;20412;-57
2022/11/01 02:42:12;;;;;;;30.25;26.58;;;14.10;99.90;;;;;;5090079;28;20380;-56
2022/11/01 02:44:43;;;;;;;36.65;30.70;;;14.10;99.90;;;;;;5089673;28;20486;-53
2022/11/01 02:47:10;;;;;;;34.93;31.03;;;14.10;99.90;;;;;;5088415;28;20643;-57
2022/11/01 02:49:46;;;;;;;37.35;29.80;;;14.10;99.90;;;;;;5087970;28;20389;-57
2022/11/01 02:52:16;;;;;;;43.73;33.70;;;14.10;99.90;;;;;;5088480;28;20437;-57
2022/11/01 02:54:44;;;;;;;38.55;31.75;;;14.10;99.90;;;;;;5089713;28;20386;-57
2022/11/01 02:57:41;;;;;;;39.30;31.53;;;14.20;99.90;;;;;;5089004;28;20380;-55
2022/11/01 03:00:19;;;;;;;39.22;32.00;;;14.20;99.90;;;;;;5088683;28;20382;-55
2022/11/01 03:02:45;;;;;;;39.53;30.63;;;14.20;99.90;;;;;;5089153;28;20386;-57
2022/11/01 03:05:32;;;;;;;44.17;35.97;;;14.30;99.90;;;;;;5088343;28;20447;-57
2022/11/01 03:08:06;;;;;;;36.97;32.73;;;14.30;99.90;;;;;;5086949;28;20477;-52
2022/11/01 03:10:59;;;;;;;45.47;35.55;;;14.20;99.90;;;;;;5087302;28;20390;-55
2022/11/01 03:13:46;;;;;;;44.70;35.47;;;14.20;99.90;;;;;;5087126;28;20410;-56
2022/11/01 03:16:27;;;;;;;42.28;32.47;;;14.20;99.90;;;;;;5087691;28;20378;-57
2022/11/01 03:19:14;;;;;;;38.40;31.15;;;14.20;99.90;;;;;;5089416;28;20378;-58
2022/11/01 03:21:56;;;;;;;40.42;34.15;;;14.30;99.90;;;;;;5089367;28;20994;-56
2022/11/01 03:24:26;;;;;;;43.33;35.33;;;14.30;99.90;;;;;;5089921;28;20382;-54
2022/11/01 03:26:59;;;;;;;45.78;35.80;;;14.20;99.90;;;;;;5089411;28;20469;-55
2022/11/01 03:29:27;;;;;;;43.70;36.13;;;14.20;99.90;;;;;;5087369;28;20385;-55
2022/11/01 03:31:54;;;;;;;42.45;34.75;;;14.30;99.90;;;;;;5088010;28;20381;-57
2022/11/01 03:34:21;;;;;;;40.72;36.08;;;14.30;99.90;;;;;;5089679;28;20413;-56
2022/11/01 03:36:51;;;;;;;40.60;34.65;;;14.30;99.90;;;;;;5088408;28;20484;-55
2022/11/01 03:39:22;;;;;;;46.87;37.23;;;14.30;99.90;;;;;;5092204;28;21037;-57
2022/11/01 03:41:51;;;;;;;45.30;37.37;;;14.30;99.90;;;;;;5093706;28;20389;-56
2022/11/01 03:44:18;;;;;;;48.70;41.42;;;14.30;99.90;;;;;;5094390;28;20385;-58
2022/11/01 03:46:44;;;;;;;43.40;36.08;;;14.20;99.90;;;;;;5096289;28;20681;-58
2022/11/01 03:49:09;;;;;;;42.77;35.13;;;14.20;99.90;;;;;;5094880;28;20465;-57
2022/11/01 03:51:35;;;;;;;44.50;37.20;;;14.30;99.90;;;;;;5094961;28;20516;-57
2022/11/01 03:54:00;;;;;;;43.05;35.10;;;14.30;99.90;;;;;;5096059;28;20460;-55
2022/11/01 03:56:26;;;;;;;39.33;32.10;;;14.30;99.90;;;;;;5094869;28;20389;-58
2022/11/01 03:58:51;;;;;;;45.83;36.57;;;14.30;99.90;;;;;;5093537;28;20482;-55
2022/11/01 04:01:17;;;;;;;39.20;34.42;;;14.30;99.90;;;;;;5091888;28;20418;-55
2022/11/01 04:03:43;;;;;;;43.10;37.80;;;14.30;99.90;;;;;;5093336;28;20393;-54
2022/11/01 04:06:09;;;;;;;45.05;37.00;;;14.30;99.90;;;;;;5095513;28;20496;-57
2022/11/01 04:08:45;;;;;;;46.28;38.92;;;14.30;99.90;;;;;;5073877;28;20500;-55
2022/11/01 04:11:10;;;;;;;48.43;37.53;;;14.30;99.90;;;;;;5090494;28;20464;-55
2022/11/01 04:13:42;;;;;;;45.57;37.53;;;14.30;99.90;;;;;;5090713;28;20736;-57
2022/11/01 04:21:39;;;;;;;51.40;37.70;;;14.30;99.90;;;;;;5092116;28;20377;-56
2022/11/01 04:24:05;;;;;;;40.55;35.38;;;14.30;99.90;;;;;;5093239;28;20378;-56
2022/11/01 04:26:31;;;;;;;48.50;39.13;;;14.20;99.90;;;;;;5093752;28;20535;-56
2022/11/01 04:28:56;;;;;;;49.17;35.87;;;14.20;99.90;;;;;;5093312;28;20397;-56
2022/11/01 04:31:23;;;;;;;43.60;37.45;;;14.20;99.90;;;;;;5092075;28;20402;-52
2022/11/01 04:33:49;;;;;;;45.70;38.08;;;14.20;99.90;;;;;;5092406;28;20457;-58
2022/11/01 04:36:14;;;;;;;47.50;41.00;;;14.20;99.90;;;;;;5092751;28;20378;-56
2022/11/01 04:38:40;;;;;;;49.77;39.67;;;14.20;99.90;;;;;;5094053;28;20392;-57
2022/11/01 04:41:08;;;;;;;43.92;36.20;;;14.20;99.90;;;;;;5092547;28;20497;-56
2022/11/01 04:43:44;;;;;;;44.17;36.28;;;14.20;99.90;;;;;;5094942;28;20697;-56
2022/11/01 04:46:21;;;;;;;47.72;38.95;;;14.20;99.90;;;;;;5093911;28;20769;-55
2022/11/01 04:48:47;;;;;;;46.80;37.92;;;14.20;99.90;;;;;;5094001;28;20382;-56
2022/11/01 04:51:12;;;;;;;43.40;36.38;;;14.20;99.90;;;;;;5092541;28;20393;-57
2022/11/01 04:53:38;;;;;;;48.28;40.15;;;14.20;99.90;;;;;;5092448;28;20418;-53
2022/11/01 04:56:05;;;;;;;44.67;36.03;;;14.20;99.90;;;;;;5091268;28;20389;-55
2022/11/01 04:58:33;;;;;;;43.38;37.05;;;14.20;99.90;;;;;;5092680;28;20394;-58
2022/11/01 05:01:03;;;;;;;43.58;36.88;;;14.20;99.90;;;;;;5088996;28;20374;-53
2022/11/01 05:03:28;;;;;;;41.88;34.83;;;14.20;99.90;;;;;;5089618;28;20382;-58
2022/11/01 05:06:12;;;;;;;47.20;41.80;;;14.20;99.90;;;;;;5090423;28;20396;-53
2022/11/01 05:08:37;;;;;;;40.88;36.35;;;14.20;99.90;;;;;;5089430;28;20382;-56
2022/11/01 05:11:03;;;;;;;48.67;42.60;;;14.20;99.90;;;;;;5089536;28;20591;-54
2022/11/01 05:13:29;;;;;;;49.33;42.20;;;14.20;99.90;;;;;;5087429;28;20726;-54
2022/11/01 05:15:54;;;;;;;46.38;38.75;;;14.20;99.90;;;;;;5086459;28;20386;-54
2022/11/01 05:18:20;;;;;;;46.10;38.90;;;14.20;99.90;;;;;;5084016;28;20386;-53
2022/11/01 05:20:45;;;;;;;57.47;47.73;;;14.10;99.90;;;;;;5082347;28;20447;-56
2022/11/01 05:23:14;;;;;;;49.25;41.95;;;14.10;99.90;;;;;;5081036;28;20469;-54
2022/11/01 05:25:45;;;;;;;45.85;38.45;;;14.10;99.90;;;;;;5081237;28;20370;-54
2022/11/01 05:28:14;;;;;;;44.22;35.40;;;14.10;99.90;;;;;;5079932;28;20405;-58
2022/11/01 05:30:47;;;;;;;41.88;35.58;;;14.10;99.90;;;;;;5079042;28;20455;-56
2022/11/01 05:33:21;;;;;;;45.20;39.90;;;14.20;99.90;;;;;;5081030;28;20809;-57
2022/11/01 05:35:47;;;;;;;41.47;36.95;;;14.20;99.90;;;;;;5086269;28;20447;-53
2022/11/01 05:38:21;;;;;;;44.15;36.33;;;14.20;99.90;;;;;;5084292;28;20382;-57
2022/11/01 05:40:50;;;;;;;45.50;37.10;;;14.20;99.90;;;;;;5084218;28;20384;-54
2022/11/01 05:43:15;;;;;;;50.72;40.67;;;14.20;99.90;;;;;;5083632;28;20405;-56
2022/11/01 05:45:41;;;;;;;52.97;44.40;;;14.20;99.90;;;;;;5085024;28;20635;-55
2022/11/01 05:48:06;;;;;;;48.37;41.67;;;14.10;99.90;;;;;;5083488;28;20504;-57
2022/11/01 05:50:32;;;;;;;49.25;41.67;;;14.10;99.90;;;;;;5084837;28;20790;-55
2022/11/01 05:53:05;;;;;;;43.47;38.33;;;14.20;99.90;;;;;;5084193;28;20406;-54
2022/11/01 05:55:31;;;;;;;48.67;39.33;;;14.10;99.90;;;;;;5083638;28;20390;-55
2022/11/01 05:57:57;;;;;;;41.42;35.92;;;14.10;99.90;;;;;;5083821;28;20439;-57
2022/11/01 06:00:23;;;;;;;47.95;39.47;;;14.20;99.90;;;;;;5083910;28;20473;-54
2022/11/01 06:02:48;;;;;;;42.77;37.23;;;14.20;99.90;;;;;;5086290;28;20715;-57
2022/11/01 06:05:13;;;;;;;48.03;38.45;;;14.20;99.90;;;;;;5085896;28;20390;-57
2022/11/01 06:07:39;;;;;;;50.47;39.70;;;14.20;99.90;;;;;;5080972;28;20374;-53
2022/11/01 06:10:05;;;;;;;51.43;41.07;;;14.20;99.90;;;;;;5082642;28;20392;-55
2022/11/01 06:12:31;;;;;;;49.35;40.72;;;14.10;99.90;;;;;;5082376;28;20398;-57
2022/11/01 06:14:56;;;;;;;52.60;45.73;;;14.10;99.90;;;;;;5082975;28;20388;-57
2022/11/01 06:17:28;;;;;;;49.78;42.58;;;14.10;99.90;;;;;;5082303;28;20390;-57
2022/11/01 06:19:57;;;;;;;53.15;44.75;;;14.10;99.90;;;;;;5081906;28;20774;-54
2022/11/01 06:22:28;;;;;;;41.00;36.53;;;14.10;99.90;;;;;;5083814;28;20789;-53
2022/11/01 06:24:57;;;;;;;48.20;40.90;;;14.10;99.90;;;;;;5081575;28;20413;-56
2022/11/01 06:27:25;;;;;;;47.58;40.08;;;14.10;99.90;;;;;;5080563;28;20400;-57
2022/11/01 06:29:50;;;;;;;54.60;41.85;;;14.10;99.90;;;;;;5083003;28;20958;-55
2022/11/01 06:32:16;;;;;;;56.77;44.93;;;14.10;99.90;;;;;;5080944;28;20645;-54
2022/11/01 06:34:41;;;;;;;58.17;44.13;;;14.10;99.90;;;;;;5081955;28;20409;-54
2022/11/01 06:37:07;;;;;;;54.13;41.77;;;14.10;99.90;;;;;;5084783;28;20373;-58
2022/11/01 06:39:32;;;;;;;46.10;39.80;;;14.10;99.90;;;;;;5083060;28;20398;-52
2022/11/01 06:41:58;;;;;;;50.00;41.85;;;14.10;99.90;;;;;;5081208;28;20681;-51
2022/11/01 06:44:26;;;;;;;46.07;39.17;;;14.10;99.90;;;;;;5079042;28;20502;-55
2022/11/01 06:46:53;;;;;;;50.25;44.60;;;14.20;99.90;;;;;;5079720;28;20428;-58
2022/11/01 06:49:19;;;;;;;51.15;42.15;;;14.20;99.90;;;;;;5077712;28;20466;-54
2022/11/01 06:51:48;;;;;;;51.53;45.78;;;14.20;99.90;;;;;;5076991;28;20500;-58
2022/11/01 06:54:13;;;;;;;45.80;39.85;;;14.20;99.90;;;;;;5078084;28;20536;-58
2022/11/01 06:56:39;;;;;;;48.13;41.50;;;14.20;99.90;;;;;;5075823;28;20405;-57
2022/11/01 06:59:05;;;;;;;52.15;46.50;;;14.20;99.90;;;;;;5076161;28;20374;-55
2022/11/01 07:01:31;;;;;;;49.40;41.60;;;14.10;99.90;;;;;;5076854;28;20381;-56
2022/11/01 07:03:56;;;;;;;44.80;38.67;;;14.10;99.90;;;;;;5072538;28;20480;-58
2022/11/01 07:06:27;;;;;;;53.57;44.10;;;14.20;99.90;;;;;;5071106;28;20378;-57
2022/11/01 07:08:53;;;;;;;41.85;37.22;;;14.10;99.90;;;;;;5070542;28;20493;-55
2022/11/01 07:11:18;;;;;;;45.92;39.90;;;14.20;99.90;;;;;;5072475;28;20382;-54
2022/11/01 07:13:44;;;;;;;46.67;40.97;;;14.20;99.90;;;;;;5074063;28;20504;-55
2022/11/01 07:16:09;;;;;;;50.30;43.20;;;14.20;99.90;;;;;;5077979;28;20537;-51
2022/11/01 07:18:35;;;;;;;48.35;40.97;;;14.20;99.90;;;;;;5078496;28;20435;-55
2022/11/01 07:21:04;;;;;;;44.73;37.30;;;14.10;99.90;;;;;;5078010;28;20389;-56
2022/11/01 07:23:33;;;;;;;46.35;39.75;;;14.20;99.90;;;;;;5077481;28;20731;-56
2022/11/01 07:25:59;;;;;;;51.30;44.55;;;14.20;99.90;;;;;;5078212;28;20632;-54
2022/11/01 07:28:25;;;;;;;48.93;39.27;;;14.20;99.90;;;;;;5076996;28;20596;-55
2022/11/01 07:30:51;;;;;;;42.20;37.60;;;14.20;99.90;;;;;;5075731;28;20562;-58
2022/11/01 07:33:18;;;;;;;44.17;39.43;;;14.20;99.90;;;;;;5075263;28;20696;-56
2022/11/01 07:35:44;;;;;;;50.55;43.78;;;14.30;99.90;;;;;;5075244;28;20385;-56
2022/11/01 07:38:10;;;;;;;42.40;37.78;;;14.30;99.90;;;;;;5075797;28;20378;-57
2022/11/01 07:40:36;;;;;;;48.95;42.05;;;14.30;99.90;;;;;;5076853;28;20389;-56
2022/11/01 07:43:05;;;;;;;43.15;37.10;;;14.20;99.90;;;;;;5078741;28;20394;-56
2022/11/01 07:45:32;;;;;;;41.17;36.85;;;14.30;99.90;;;;;;5078225;28;20660;-57
2022/11/01 07:48:09;;;;;;;47.43;42.47;;;14.30;99.90;;;;;;5079052;28;20466;-56
2022/11/01 07:50:35;;;;;;;41.47;37.00;;;14.30;99.90;;;;;;5079275;28;20458;-51
2022/11/01 07:53:21;;;;;;;50.60;43.05;;;14.30;99.90;;;;;;5075874;28;20398;-58
2022/11/01 07:55:47;;;;;;;44.08;39.28;;;14.30;99.90;;;;;;5077190;28;20398;-55
2022/11/01 07:58:14;;;;;;;44.57;38.60;;;14.40;99.90;;;;;;5076390;28;20634;-53
2022/11/01 08:00:41;;;;;;;41.97;37.70;;;14.40;99.90;;;;;;5077238;28;20468;-57
2022/11/01 08:03:12;;;;;;;43.75;39.08;;;14.40;99.90;;;;;;5079501;28;20497;-52
2022/11/01 08:05:38;;;;;;;42.95;38.50;;;14.50;99.90;;;;;;5078306;28;20709;-53
2022/11/01 08:08:05;;;;;;;48.45;42.53;;;14.50;99.90;;;;;;5076285;28;20398;-53
2022/11/01 08:10:31;;;;;;;41.88;36.00;;;14.50;99.90;;;;;;5083257;28;20394;-55
2022/11/01 08:13:18;;;;;;;41.15;37.03;;;14.50;99.90;;;;;;5084994;28;20502;-57
2022/11/01 08:15:44;;;;;;;42.70;38.33;;;14.60;99.90;;;;;;5083330;28;21066;-54
2022/11/01 08:18:10;;;;;;;40.85;36.45;;;14.50;99.90;;;;;;5084595;28;20669;-57
2022/11/01 08:20:36;;;;;;;38.15;34.03;;;14.60;99.90;;;;;;5084493;28;20709;-51
2022/11/01 08:23:02;;;;;;;41.60;37.17;;;14.60;99.90;;;;;;5083756;28;20378;-55
2022/11/01 08:25:28;;;;;;;37.25;33.17;;;14.70;99.90;;;;;;5083767;28;20455;-53
2022/11/01 08:27:54;;;;;;;41.15;36.75;;;14.60;99.90;;;;;;5086281;28;20414;-52
2022/11/01 08:30:19;;;;;;;35.60;31.90;;;14.70;99.90;;;;;;5084579;28;20382;-55
2022/11/01 08:32:45;;;;;;;36.13;32.72;;;14.80;99.90;;;;;;5084876;28;20418;-55
2022/11/01 08:35:13;;;;;;;40.27;36.27;;;14.80;99.90;;;;;;5086192;28;20378;-55
2022/11/01 08:37:52;;;;;;;35.83;32.55;;;14.80;99.90;;;;;;5085054;28;20393;-56
2022/11/01 08:40:18;;;;;;;36.42;32.83;;;14.90;99.90;;;;;;5085510;28;20416;-50
2022/11/01 08:42:43;;;;;;;45.07;40.93;;;14.90;99.90;;;;;;5084754;28;20397;-51
2022/11/01 08:45:10;;;;;;;39.57;35.63;;;14.90;99.90;;;;;;5082387;28;20413;-56
2022/11/01 08:47:36;;;;;;;36.05;32.65;;;15.00;99.90;;;;;;5079230;28;20382;-57
2022/11/01 08:50:03;;;;;;;40.28;36.10;;;15.00;99.90;;;;;;5078714;28;20400;-57
2022/11/01 08:52:28;;;;;;;33.97;30.75;;;15.00;99.90;;;;;;5079674;28;20599;-55
2022/11/01 08:54:53;;;;;;;33.93;30.53;;;15.00;99.90;;;;;;5079161;28;20810;-55
2022/11/01 08:57:19;;;;;;;32.50;29.50;;;15.00;99.90;;;;;;5082665;28;20378;-52
2022/11/01 08:59:44;;;;;;;33.97;30.87;;;15.00;99.90;;;;;;5084214;28;20394;-57
2022/11/01 09:02:11;;;;;;;32.22;29.42;;;15.10;99.90;;;;;;5082811;28;20732;-57
2022/11/01 09:04:36;;;;;;;35.67;32.45;;;15.10;99.90;;;;;;5083710;28;20938;-57
2022/11/01 09:07:02;;;;;;;41.85;38.15;;;15.20;99.90;;;;;;5084460;28;20382;-58
2022/11/01 09:09:28;;;;;;;29.33;26.73;;;15.20;99.90;;;;;;5085633;28;20390;-56
2022/11/01 09:11:55;;;;;;;34.42;31.42;;;15.30;99.90;;;;;;5085802;28;20550;-55
2022/11/01 09:14:23;;;;;;;36.53;33.67;;;15.40;99.90;;;;;;5086013;28;20398;-56
2022/11/01 09:16:49;;;;;;;32.28;29.08;;;15.40;99.90;;;;;;5085321;28;20824;-58
2022/11/01 09:19:17;;;;;;;30.40;27.88;;;15.50;99.90;;;;;;5084544;28;20366;-56
2022/11/01 09:21:44;;;;;;;28.33;25.95;;;15.50;99.90;;;;;;5086982;28;20406;-57
2022/11/01 09:24:14;;;;;;;29.42;27.02;;;15.50;99.90;;;;;;5085224;28;20434;-58
2022/11/01 09:26:39;;;;;;;25.13;22.88;;;15.70;99.90;;;;;;5085383;28;20681;-57
2022/11/01 09:29:05;;;;;;;27.53;25.23;;;15.80;99.90;;;;;;5085290;28;20773;-55
2022/11/01 09:31:32;;;;;;;23.80;21.77;;;15.90;99.90;;;;;;5080465;28;20395;-56
2022/11/01 09:33:59;;;;;;;40.17;37.40;;;15.90;99.90;;;;;;5077376;28;20425;-56
2022/11/01 09:36:25;;;;;;;25.23;22.95;;;15.90;99.90;;;;;;5078765;28;20386;-56
2022/11/01 09:38:51;;;;;;;36.10;33.45;;;16.00;99.90;;;;;;5078147;28;20677;-52
2022/11/01 09:41:34;;;;;;;27.50;25.30;;;16.00;99.90;;;;;;5082252;28;20378;-57
2022/11/01 09:44:03;;;;;;;27.20;25.00;;;16.10;99.90;;;;;;5082000;28;20385;-55
2022/11/01 09:46:42;;;;;;;27.75;25.65;;;16.20;99.90;;;;;;5084058;28;20416;-53
2022/11/01 09:49:10;;;;;;;35.57;32.77;;;16.30;99.90;;;;;;5083917;28;20396;-53
2022/11/01 09:51:37;;;;;;;27.08;25.27;;;16.40;99.90;;;;;;5084789;28;20531;-56
2022/11/01 09:54:03;;;;;;;35.58;33.17;;;16.40;99.90;;;;;;5088101;28;20563;-56
2022/11/01 09:56:43;;;;;;;31.98;29.58;;;16.50;99.90;;;;;;5087488;28;20390;-57
2022/11/01 09:59:26;;;;;;;26.50;24.80;;;16.50;99.90;;;;;;5087428;28;21062;-53
2022/11/01 10:02:18;;;;;;;46.03;42.80;;;16.50;99.90;;;;;;5087193;28;20393;-57
2022/11/01 10:05:08;;;;;;;35.65;33.22;;;16.60;99.90;;;;;;5087696;28;20378;-58
2022/11/01 10:07:48;;;;;;;32.13;29.83;;;16.50;99.90;;;;;;5085191;28;20385;-57
2022/11/01 10:10:45;;;;;;;23.70;21.95;;;16.50;99.90;;;;;;5087385;28;20382;-57
2022/11/01 10:13:16;;;;;;;34.78;32.47;;;16.50;99.90;;;;;;5086337;28;20809;-57
2022/11/01 10:16:03;;;;;;;26.40;24.42;;;16.50;99.90;;;;;;5085316;28;20490;-56
2022/11/01 10:18:31;;;;;;;25.83;24.05;;;16.50;99.90;;;;;;5082624;28;20469;-56
2022/11/01 10:21:14;;;;;;;49.25;45.85;;;16.50;99.90;;;;;;5082671;28;20473;-55
2022/11/01 10:23:50;;;;;;;32.80;30.15;;;16.50;99.90;;;;;;5084452;28;20374;-58
2022/11/01 10:26:28;;;;;;;43.53;40.78;;;16.50;99.90;;;;;;5081675;28;20631;-54
2022/11/01 10:29:20;;;;;;;29.23;26.83;;;16.50;99.90;;;;;;5079865;28;20392;-55
2022/11/01 10:31:50;;;;;;;34.03;31.42;;;16.50;99.90;;;;;;5080932;28;20386;-51
2022/11/01 10:34:27;;;;;;;35.67;32.75;;;16.50;99.90;;;;;;5078074;28;20445;-57
2022/11/01 10:37:04;;;;;;;41.42;38.53;;;16.50;99.90;;;;;;5079903;28;20385;-56
2022/11/01 10:39:41;;;;;;;34.63;31.92;;;16.50;99.90;;;;;;5081326;28;20458;-58
2022/11/01 10:42:11;;;;;;;42.50;39.80;;;16.60;99.90;;;;;;5085037;28;20742;-58
2022/11/01 10:44:45;;;;;;;28.40;26.30;;;16.60;99.90;;;;;;5083753;28;20397;-56
2022/11/01 10:47:20;;;;;;;33.63;31.02;;;16.70;99.90;;;;;;5085248;28;20397;-57
2022/11/01 10:49:58;;;;;;;38.67;36.35;;;16.90;99.90;;;;;;5084561;28;20716;-55
2022/11/01 10:52:31;;;;;;;40.57;37.77;;;17.10;99.90;;;;;;5084822;28;20524;-58
2022/11/01 10:55:00;;;;;;;35.17;32.90;;;17.30;99.90;;;;;;5083523;28;20374;-55
2022/11/01 10:57:32;;;;;;;48.95;46.10;;;17.40;99.90;;;;;;5083616;28;20378;-53
2022/11/01 11:00:04;;;;;;;52.17;49.08;;;17.50;99.90;;;;;;5083564;28;20443;-55
2022/11/01 11:02:44;;;;;;;42.83;40.05;;;17.60;99.90;;;;;;5084027;28;20385;-56
2022/11/01 11:05:17;;;;;;;42.23;39.67;;;17.70;99.90;;;;;;5085016;28;20389;-55
2022/11/01 11:07:43;;;;;;;61.83;58.30;;;17.90;99.90;;;;;;5085028;28;20386;-54
2022/11/01 11:10:23;;;;;;;58.57;55.07;;;18.00;99.90;;;;;;5084892;28;20845;-55
2022/11/01 11:12:52;;;;;;;67.33;63.67;;;18.00;99.90;;;;;;5083845;28;20470;-54
2022/11/01 11:16:00;;;;;;;50.80;47.80;;;17.90;99.90;;;;;;5082816;28;20532;-57
2022/11/01 11:18:36;;;;;;;72.57;68.78;;;18.00;99.90;;;;;;5083410;28;20920;-55
2022/11/01 11:21:05;;;;;;;62.53;59.05;;;18.00;99.90;;;;;;5084834;28;20430;-52
2022/11/01 11:23:33;;;;;;;72.85;68.85;;;18.00;99.90;;;;;;5083925;28;20378;-57
2022/11/01 11:26:08;;;;;;;56.38;53.17;;;18.10;99.90;;;;;;5084409;28;20389;-57
2022/11/01 11:28:41;;;;;;;47.20;44.47;;;18.10;99.90;;;;;;5083606;28;20378;-56
2022/11/01 11:31:14;;;;;;;55.10;51.92;;;18.20;99.90;;;;;;5083564;28;20394;-55
2022/11/01 11:33:48;;;;;;;52.85;49.90;;;18.30;99.90;;;;;;5082889;28;20440;-58
2022/11/01 11:36:14;;;;;;;49.70;46.75;;;18.40;99.90;;;;;;5083289;28;20382;-56
2022/11/01 11:38:43;;;;;;;92.00;86.70;;;18.40;99.90;;;;;;5085443;28;20459;-58
2022/11/01 11:41:10;;;;;;;59.35;56.00;;;18.30;99.90;;;;;;5082701;28;20444;-56
2022/11/01 11:43:39;;;;;;;61.95;58.30;;;18.10;99.90;;;;;;5081144;28;20382;-57
2022/11/01 11:46:09;;;;;;;53.97;50.90;;;18.20;99.90;;;;;;5079915;28;20421;-56
2022/11/01 11:48:51;;;;;;;56.10;52.90;;;18.30;99.90;;;;;;5078794;28;21320;-54
2022/11/01 11:51:18;;;;;;;46.47;43.88;;;18.40;99.90;;;;;;5077372;28;20382;-57
2022/11/01 11:54:00;;;;;;;57.35;54.15;;;18.60;99.90;;;;;;5075009;28;20398;-53
2022/11/01 11:56:25;;;;;;;52.15;48.95;;;18.70;99.90;;;;;;5072568;28;20452;-57
2022/11/01 11:58:52;;;;;;;61.70;58.22;;;18.80;99.90;;;;;;5073588;28;20981;-55
2022/11/01 12:01:24;;;;;;;66.03;62.17;;;18.90;99.90;;;;;;5078572;28;20676;-54
2022/11/01 12:03:57;;;;;;;55.58;52.20;;;18.80;99.90;;;;;;5080950;28;20487;-56
2022/11/01 12:06:25;;;;;;;58.03;54.60;;;19.00;99.90;;;;;;5083477;28;20417;-57
2022/11/01 12:08:53;;;;;;;57.08;53.88;;;19.10;99.90;;;;;;5084204;28;20450;-57
2022/11/01 12:11:21;;;;;;;66.38;62.45;;;19.20;99.90;;;;;;5087409;28;20386;-57
2022/11/01 12:14:01;;;;;;;54.60;51.33;;;19.10;99.90;;;;;;5087279;28;20463;-57
2022/11/01 12:16:27;;;;;;;61.10;57.38;;;19.10;99.90;;;;;;5089684;28;20400;-57
2022/11/01 12:19:01;;;;;;;62.95;59.40;;;19.00;99.90;;;;;;5085829;28;20398;-56
2022/11/01 12:21:36;;;;;;;56.33;52.75;;;19.20;99.90;;;;;;5087021;28;20457;-56
2022/11/01 12:24:22;;;;;;;53.05;49.65;;;19.20;99.90;;;;;;5086263;28;20455;-56
2022/11/01 12:26:50;;;;;;;59.63;55.88;;;19.20;99.90;;;;;;5088239;28;20380;-55
2022/11/01 12:29:39;;;;;;;60.70;56.97;;;18.90;99.90;;;;;;5083843;28;20385;-58
2022/11/01 12:32:23;;;;;;;59.95;56.40;;;18.90;99.90;;;;;;5081316;28;20715;-56
2022/11/01 12:34:51;;;;;;;64.97;61.03;;;19.20;99.90;;;;;;5081832;28;20585;-57
2022/11/01 12:37:38;;;;;;;52.45;49.20;;;19.10;99.90;;;;;;5081326;28;20386;-53
2022/11/01 12:40:18;;;;;;;58.97;55.33;;;19.10;99.90;;;;;;5074479;28;20379;-56
2022/11/01 12:43:09;;;;;;;49.15;45.75;;;19.30;99.90;;;;;;5082144;28;20820;-58
2022/11/01 12:45:56;;;;;;;52.13;49.08;;;19.30;99.90;;;;;;5085822;28;20418;-55
2022/11/01 12:48:30;;;;;;;49.85;46.55;;;19.50;99.90;;;;;;5083116;28;20382;-58
2022/11/01 12:51:02;;;;;;;63.00;59.17;;;19.40;99.90;;;;;;5083724;28;20381;-56
2022/11/01 12:53:38;;;;;;;50.95;47.97;;;19.50;99.90;;;;;;5083928;28;20401;-55